createdAt,value
2017-07-21T00:01:44.356Z,69.00
2017-07-21T00:04:18.908Z,68.10
2017-07-21T00:06:52.805Z,66.80
2017-07-21T00:09:27.345Z,68.00
2017-07-21T00:12:01.172Z,66.20
2017-07-21T00:14:36.521Z,65.10
2017-07-21T00:17:11.287Z,68.40
2017-07-21T00:19:45.228Z,68.00
2017-07-21T00:22:19.717Z,68.70
2017-07-21T00:24:54.420Z,67.10
2017-07-21T00:27:29.177Z,69.20
2017-07-21T00:30:03.964Z,71.70
2017-07-21T00:32:38.632Z,72.10
2017-07-21T00:35:12.733Z,71.80
2017-07-21T00:37:47.339Z,73.50
2017-07-21T00:40:21.341Z,72.80
2017-07-21T00:42:56.497Z,71.60
2017-07-21T00:45:30.518Z,71.40
2017-07-21T00:48:04.401Z,70.90
2017-07-21T00:50:38.909Z,71.30
2017-07-21T00:53:12.996Z,71.40
2017-07-21T00:55:47.444Z,72.30
2017-07-21T00:58:21.508Z,72.00
2017-07-21T01:00:56.118Z,70.70
2017-07-21T01:03:29.873Z,71.50
2017-07-21T01:06:04.412Z,72.50
2017-07-21T01:08:38.484Z,72.40
2017-07-21T01:11:12.931Z,71.00
2017-07-21T01:13:46.825Z,74.10
2017-07-21T01:16:20.432Z,73.30
2017-07-21T01:18:54.152Z,73.10
2017-07-21T01:21:27.864Z,71.70
2017-07-21T01:24:01.537Z,72.70
2017-07-21T01:26:35.317Z,73.90
2017-07-21T01:29:09.063Z,75.00
2017-07-21T01:31:43.494Z,76.60
2017-07-21T01:34:17.497Z,76.50
2017-07-21T01:36:51.113Z,77.30
2017-07-21T01:39:24.881Z,75.60
2017-07-21T01:41:59.234Z,75.10
2017-07-21T01:44:33.229Z,75.00
2017-07-21T01:47:06.856Z,76.90
2017-07-21T01:49:40.724Z,74.00
2017-07-21T01:52:15.269Z,75.10
2017-07-21T01:54:49.181Z,75.00
2017-07-21T01:57:22.785Z,76.00
2017-07-21T01:59:56.570Z,76.30
2017-07-21T02:02:31.139Z,76.30
2017-07-21T02:05:05.192Z,76.30
2017-07-21T02:07:39.798Z,79.00
2017-07-21T02:10:13.472Z,78.90
2017-07-21T02:12:48.003Z,75.80
2017-07-21T02:15:21.942Z,75.80
2017-07-21T02:17:57.328Z,76.80
2017-07-21T02:20:31.433Z,76.90
2017-07-21T02:23:05.998Z,76.70
2017-07-21T02:25:39.855Z,77.40
2017-07-21T02:28:14.393Z,76.50
2017-07-21T02:30:48.283Z,76.40
2017-07-21T02:33:21.952Z,77.50
2017-07-21T02:35:55.731Z,77.60
2017-07-21T02:38:30.228Z,77.80
2017-07-21T02:41:04.097Z,77.70
2017-07-21T02:43:37.745Z,76.90
2017-07-21T02:46:11.528Z,79.00
2017-07-21T02:48:46.065Z,79.00
2017-07-21T02:51:20.073Z,79.00
2017-07-21T02:53:54.604Z,77.90
2017-07-21T02:56:28.581Z,76.90
2017-07-21T02:59:03.033Z,78.20
2017-07-21T03:01:37.201Z,78.10
2017-07-21T03:04:11.645Z,78.70
2017-07-21T03:06:45.345Z,79.00
2017-07-21T03:09:19.797Z,77.40
2017-07-21T03:11:53.792Z,77.40
2017-07-21T03:14:28.229Z,77.50
2017-07-21T03:17:03.170Z,77.30
2017-07-21T03:19:36.873Z,77.70
2017-07-21T03:22:11.317Z,79.40
2017-07-21T03:24:45.002Z,79.20
2017-07-21T03:27:18.673Z,80.20
2017-07-21T03:29:52.361Z,77.70
2017-07-21T03:32:26.954Z,79.40
2017-07-21T03:35:00.736Z,79.30
2017-07-21T03:37:35.397Z,79.40
2017-07-21T03:40:10.089Z,79.20
2017-07-21T03:42:44.743Z,79.00
2017-07-21T03:45:19.346Z,78.70
2017-07-21T03:47:54.101Z,76.40
2017-07-21T03:50:27.857Z,76.30
2017-07-21T03:53:02.421Z,80.70
2017-07-21T03:55:36.017Z,80.00
2017-07-21T03:58:10.445Z,79.60
2017-07-21T04:00:44.450Z,79.00
2017-07-21T04:03:18.193Z,78.00
2017-07-21T04:05:52.740Z,79.00
2017-07-21T04:08:26.830Z,78.90
2017-07-21T04:11:00.560Z,79.10
2017-07-21T04:13:35.237Z,78.60
2017-07-21T04:16:09.174Z,78.60
2017-07-21T04:18:42.990Z,78.40
2017-07-21T04:21:16.752Z,80.10
2017-07-21T04:23:50.670Z,76.80
2017-07-21T04:26:25.152Z,75.50
2017-07-21T04:28:59.060Z,75.60
2017-07-21T04:31:32.608Z,76.10
2017-07-21T04:34:07.200Z,76.40
2017-07-21T04:36:41.580Z,76.60
2017-07-21T04:39:15.604Z,76.50
2017-07-21T04:41:49.367Z,76.60
2017-07-21T04:44:23.169Z,76.70
2017-07-21T04:46:57.757Z,77.70
2017-07-21T04:49:32.309Z,80.20
2017-07-21T04:52:06.981Z,79.10
2017-07-21T04:54:41.117Z,78.10
2017-07-21T04:57:14.803Z,78.80
2017-07-21T04:59:48.568Z,80.10
2017-07-21T05:02:22.202Z,78.90
2017-07-21T05:04:56.872Z,80.50
2017-07-21T05:07:30.792Z,80.50
2017-07-21T05:10:04.677Z,79.30
2017-07-21T05:12:39.141Z,78.00
2017-07-21T05:15:13.650Z,76.30
2017-07-21T05:17:47.553Z,76.30
2017-07-21T05:20:21.477Z,76.70
2017-07-21T05:22:55.258Z,78.00
2017-07-21T05:25:29.053Z,76.10
2017-07-21T05:28:02.652Z,77.20
2017-07-21T05:30:36.521Z,74.90
2017-07-21T05:33:10.223Z,75.50
2017-07-21T05:35:44.024Z,76.80
2017-07-21T05:38:18.593Z,75.80
2017-07-21T05:40:52.367Z,75.50
2017-07-21T05:43:26.799Z,74.70
2017-07-21T05:46:01.558Z,74.60
2017-07-21T05:48:36.364Z,74.60
2017-07-21T05:51:11.001Z,73.80
2017-07-21T05:53:44.824Z,73.60
2017-07-21T05:56:18.582Z,75.00
2017-07-21T05:58:52.186Z,73.20
2017-07-21T06:01:26.758Z,71.70
2017-07-21T06:04:00.507Z,71.50
2017-07-21T06:06:35.069Z,73.10
2017-07-21T06:09:08.985Z,73.10
2017-07-21T06:11:42.861Z,70.40
2017-07-21T06:14:17.340Z,69.60
2017-07-21T06:16:53.249Z,70.40
2017-07-21T06:19:26.981Z,70.40
2017-07-21T06:22:02.430Z,67.30
2017-07-21T06:24:36.312Z,67.20
2017-07-21T06:27:11.042Z,68.60
2017-07-21T06:29:44.709Z,67.60
2017-07-21T06:32:18.505Z,67.00
2017-07-21T06:34:52.116Z,68.20
2017-07-21T06:37:25.980Z,68.00
2017-07-21T06:39:59.632Z,68.10
2017-07-21T06:42:33.405Z,70.20
2017-07-21T06:45:07.114Z,66.90
2017-07-21T06:47:42.861Z,67.40
2017-07-21T06:50:16.537Z,65.30
2017-07-21T06:52:50.958Z,64.40
2017-07-21T06:55:25.641Z,64.40
2017-07-21T06:58:00.604Z,64.90
2017-07-21T07:00:34.525Z,64.70
2017-07-21T07:03:08.329Z,64.80
2017-07-21T07:05:41.939Z,65.50
2017-07-21T07:08:16.564Z,65.60
2017-07-21T07:10:50.211Z,65.50
2017-07-21T07:13:23.968Z,65.20
2017-07-21T07:15:58.456Z,65.70
2017-07-21T07:18:32.229Z,66.00
2017-07-21T07:21:07.502Z,67.00
2017-07-21T07:23:41.406Z,66.70
2017-07-21T07:26:15.032Z,66.40
2017-07-21T07:28:49.690Z,65.10
2017-07-21T07:31:24.197Z,64.80
2017-07-21T07:33:58.710Z,65.20
2017-07-21T07:36:32.625Z,65.10
2017-07-21T07:39:07.340Z,64.60
2017-07-21T07:41:41.253Z,63.80
2017-07-21T07:44:15.817Z,59.30
2017-07-21T07:46:50.505Z,59.00
2017-07-21T07:49:25.157Z,58.30
2017-07-21T07:51:58.996Z,58.40
2017-07-21T07:54:33.566Z,60.00
2017-07-21T07:57:08.154Z,60.80
2017-07-21T07:59:42.134Z,61.40
2017-07-21T08:02:15.886Z,61.50
2017-07-21T08:04:50.464Z,61.60
2017-07-21T08:07:24.212Z,60.20
2017-07-21T08:09:58.669Z,62.20
2017-07-21T08:12:33.241Z,61.90
2017-07-21T08:15:07.184Z,62.00
2017-07-21T08:17:41.657Z,57.80
2017-07-21T08:20:16.264Z,57.00
2017-07-21T08:22:49.861Z,57.50
2017-07-21T08:25:23.761Z,57.40
2017-07-21T08:27:58.264Z,57.80
2017-07-21T08:30:32.789Z,57.50
2017-07-21T08:33:06.544Z,57.40
2017-07-21T08:35:41.116Z,57.80
2017-07-21T08:38:14.781Z,56.20
2017-07-21T08:40:48.561Z,57.30
2017-07-21T08:43:23.100Z,56.00
2017-07-21T08:45:56.957Z,56.00
2017-07-21T08:48:30.676Z,55.10
2017-07-21T08:51:04.516Z,54.20
2017-07-21T08:53:38.102Z,53.40
2017-07-21T08:56:11.762Z,53.70
2017-07-21T08:58:46.167Z,55.10
2017-07-21T09:01:20.250Z,55.10
2017-07-21T09:03:53.989Z,55.20
2017-07-21T09:06:28.446Z,53.20
2017-07-21T09:09:02.348Z,53.00
2017-07-21T09:11:35.993Z,51.70
2017-07-21T09:14:11.346Z,50.90
2017-07-21T09:16:45.296Z,50.70
2017-07-21T09:19:19.672Z,48.00
2017-07-21T09:21:53.768Z,48.00
2017-07-21T09:24:28.292Z,47.40
2017-07-21T09:27:01.973Z,45.80
2017-07-21T09:29:36.338Z,46.50
2017-07-21T09:32:10.300Z,46.70
2017-07-21T09:34:43.901Z,54.40
2017-07-21T09:37:18.493Z,46.80
2017-07-21T09:39:52.329Z,46.80
2017-07-21T09:42:26.920Z,47.20
2017-07-21T09:45:00.720Z,47.10
2017-07-21T09:47:36.263Z,50.10
2017-07-21T09:50:10.765Z,46.20
2017-07-21T09:52:44.696Z,45.90
2017-07-21T09:55:18.489Z,45.20
2017-07-21T09:57:52.380Z,44.90
2017-07-21T10:00:26.137Z,46.40
2017-07-21T10:03:00.761Z,45.40
2017-07-21T10:05:34.649Z,45.30
2017-07-21T10:08:09.299Z,45.80
2017-07-21T10:10:43.253Z,45.70
2017-07-21T10:13:17.918Z,47.70
2017-07-21T10:15:51.932Z,47.60
2017-07-21T10:18:26.643Z,47.20
2017-07-21T10:21:00.390Z,46.50
2017-07-21T10:23:34.983Z,46.00
2017-07-21T10:26:08.820Z,45.70
2017-07-21T10:28:42.660Z,45.80
2017-07-21T10:31:16.385Z,45.90
2017-07-21T10:33:50.282Z,47.00
2017-07-21T10:36:23.881Z,49.70
2017-07-21T10:38:58.440Z,53.30
2017-07-21T10:41:32.120Z,47.50
2017-07-21T10:44:06.026Z,47.50
2017-07-21T10:46:40.537Z,46.40
2017-07-21T10:49:14.540Z,46.40
2017-07-21T10:51:49.068Z,46.80
2017-07-21T10:54:24.044Z,46.50
2017-07-21T10:56:57.764Z,46.50
2017-07-21T10:59:31.572Z,45.90
2017-07-21T11:02:05.241Z,46.10
2017-07-21T11:04:39.881Z,46.30
2017-07-21T11:07:13.849Z,46.40
2017-07-21T11:09:47.609Z,44.80
2017-07-21T11:12:21.314Z,43.70
2017-07-21T11:14:55.937Z,44.80
2017-07-21T11:17:29.844Z,44.80
2017-07-21T11:20:04.374Z,43.70
2017-07-21T11:22:38.374Z,43.70
2017-07-21T11:25:12.165Z,45.30
2017-07-21T11:27:46.777Z,42.00
2017-07-21T11:30:20.515Z,41.80
2017-07-21T11:32:54.965Z,42.80
2017-07-21T11:35:28.765Z,43.00
2017-07-21T11:38:02.512Z,42.50
2017-07-21T11:40:36.217Z,43.10
2017-07-21T11:43:09.960Z,42.30
2017-07-21T11:45:43.681Z,43.30
2017-07-21T11:48:17.432Z,46.50
2017-07-21T11:50:51.993Z,44.50
2017-07-21T11:53:25.884Z,44.50
2017-07-21T11:56:00.401Z,49.60
2017-07-21T11:58:34.317Z,49.20
2017-07-21T12:01:08.221Z,49.50
2017-07-21T12:03:41.827Z,50.30
2017-07-21T12:06:16.341Z,47.10
2017-07-21T12:08:50.185Z,47.20
2017-07-21T12:11:24.057Z,52.90
2017-07-21T12:13:58.564Z,47.20
2017-07-21T12:16:32.421Z,51.40
2017-07-21T12:19:06.202Z,53.10
2017-07-21T12:21:39.993Z,49.40
2017-07-21T12:24:13.704Z,43.50
2017-07-21T12:26:48.224Z,45.00
2017-07-21T12:29:22.008Z,44.90
2017-07-21T12:31:55.881Z,47.20
2017-07-21T12:34:29.540Z,43.20
2017-07-21T12:37:03.421Z,43.20
2017-07-21T12:39:37.056Z,40.60
2017-07-21T12:42:10.920Z,41.30
2017-07-21T12:44:45.544Z,43.80
2017-07-21T12:47:20.537Z,43.70
2017-07-21T12:49:55.001Z,44.00
2017-07-21T12:52:29.048Z,43.70
2017-07-21T12:55:03.541Z,49.00
2017-07-21T12:57:37.628Z,48.50
2017-07-21T13:00:11.405Z,45.10
2017-07-21T13:02:45.125Z,49.50
2017-07-21T13:05:18.876Z,47.10
2017-07-21T13:07:53.353Z,47.10
2017-07-21T13:10:27.300Z,47.00
2017-07-21T13:13:01.833Z,48.20
2017-07-21T13:15:35.597Z,48.40
2017-07-21T13:18:10.251Z,49.30
2017-07-21T13:20:44.774Z,41.10
2017-07-21T13:23:19.017Z,40.30
2017-07-21T13:25:54.226Z,45.20
2017-07-21T13:28:28.312Z,44.90
2017-07-21T13:31:02.065Z,38.90
2017-07-21T13:33:35.825Z,44.40
2017-07-21T13:36:09.525Z,39.80
2017-07-21T13:38:44.093Z,45.60
2017-07-21T13:41:18.692Z,42.20
2017-07-21T13:43:52.849Z,42.40
2017-07-21T13:46:27.421Z,46.40
2017-07-21T13:49:02.369Z,47.20
2017-07-21T13:51:36.144Z,47.20
2017-07-21T13:54:10.029Z,41.40
2017-07-21T13:56:43.629Z,46.50
2017-07-21T13:59:18.140Z,46.60
2017-07-21T14:01:51.961Z,46.50
2017-07-21T14:04:26.489Z,46.10
2017-07-21T14:07:00.311Z,46.10
2017-07-21T14:09:34.727Z,38.60
2017-07-21T14:12:08.697Z,38.50
2017-07-21T14:14:43.363Z,44.20
2017-07-21T14:17:17.205Z,43.90
2017-07-21T14:19:50.893Z,45.70
2017-07-21T14:22:25.329Z,46.00
2017-07-21T14:24:59.160Z,46.00
2017-07-21T14:27:33.660Z,44.10
2017-07-21T14:30:07.552Z,44.20
2017-07-21T14:32:41.266Z,46.40
2017-07-21T14:35:14.953Z,46.80
2017-07-21T14:37:48.557Z,45.00
2017-07-21T14:40:22.868Z,47.00
2017-07-21T14:42:57.924Z,40.00
2017-07-21T14:45:32.033Z,39.90
2017-07-21T14:48:05.643Z,44.50
2017-07-21T14:50:39.481Z,47.30
2017-07-21T14:53:14.692Z,46.50
2017-07-21T14:55:48.677Z,46.50
2017-07-21T14:58:22.331Z,47.50
2017-07-21T15:00:56.178Z,46.70
2017-07-21T15:03:30.547Z,46.40
2017-07-21T15:06:04.397Z,46.40
2017-07-21T15:08:38.083Z,45.60
2017-07-21T15:11:11.743Z,45.50
2017-07-21T15:13:45.382Z,44.20
2017-07-21T15:16:19.912Z,38.40
2017-07-21T15:18:53.812Z,38.10
2017-07-21T15:21:28.454Z,41.30
2017-07-21T15:24:02.448Z,41.30
2017-07-21T15:26:37.125Z,38.60
2017-07-21T15:29:10.785Z,38.60
2017-07-21T15:31:44.516Z,38.20
2017-07-21T15:34:18.161Z,34.60
2017-07-21T15:36:52.605Z,37.60
2017-07-21T15:39:26.420Z,37.60
2017-07-21T15:42:01.128Z,31.20
2017-07-21T15:44:34.953Z,30.80
2017-07-21T15:47:10.726Z,36.10
2017-07-21T15:49:44.508Z,36.10
2017-07-21T15:52:18.280Z,35.80
2017-07-21T15:54:51.914Z,36.40
2017-07-21T15:57:25.625Z,33.20
2017-07-21T15:59:59.321Z,33.80
2017-07-21T16:02:33.141Z,34.50
2017-07-21T16:05:06.733Z,34.10
2017-07-21T16:07:40.437Z,33.90
2017-07-21T16:10:14.090Z,34.80
2017-07-21T16:12:47.969Z,33.20
2017-07-21T16:15:23.016Z,34.10
2017-07-21T16:17:57.919Z,33.90
2017-07-21T16:20:31.920Z,33.90
2017-07-21T16:23:05.667Z,34.30
2017-07-21T16:25:40.201Z,33.80
2017-07-21T16:28:14.277Z,33.50
2017-07-21T16:31:04.796Z,34.10
2017-07-21T16:33:38.784Z,33.70
2017-07-21T16:36:14.065Z,33.90
2017-07-21T16:38:48.741Z,34.80
2017-07-21T16:41:23.325Z,35.00
2017-07-21T16:43:57.422Z,35.00
2017-07-21T16:46:31.955Z,34.90
2017-07-21T16:49:07.697Z,34.20
2017-07-21T16:51:42.236Z,30.80
2017-07-21T16:54:16.323Z,30.70
2017-07-21T16:56:50.764Z,31.00
2017-07-21T16:59:24.797Z,31.00
2017-07-21T17:01:59.339Z,34.50
2017-07-21T17:04:34.004Z,35.10
2017-07-21T17:07:07.596Z,37.90
2017-07-21T17:09:42.278Z,40.40
2017-07-21T17:12:16.301Z,40.40
2017-07-21T17:14:50.109Z,40.30
2017-07-21T17:17:24.675Z,40.70
2017-07-21T17:19:59.252Z,43.00
2017-07-21T17:22:33.062Z,42.50
2017-07-21T17:25:07.481Z,43.80
2017-07-21T17:27:41.302Z,43.50
2017-07-21T17:30:15.084Z,44.40
2017-07-21T17:32:48.898Z,43.40
2017-07-21T17:35:24.349Z,45.00
2017-07-21T17:37:58.303Z,45.00
2017-07-21T17:40:32.963Z,46.00
2017-07-21T17:43:06.785Z,45.90
2017-07-21T17:45:40.641Z,46.20
2017-07-21T17:48:14.216Z,46.20
2017-07-21T17:50:48.831Z,46.50
2017-07-21T17:53:22.753Z,46.50
2017-07-21T17:55:56.626Z,46.50
2017-07-21T17:58:30.428Z,46.60
2017-07-21T18:01:04.284Z,46.90
2017-07-21T18:03:38.741Z,46.80
2017-07-21T18:06:13.190Z,47.40
2017-07-21T18:08:47.097Z,47.40
2017-07-21T18:11:20.982Z,47.40
2017-07-21T18:13:54.809Z,47.20
2017-07-21T18:16:28.664Z,47.60
2017-07-21T18:19:03.196Z,48.20
2017-07-21T18:21:37.380Z,48.20
2017-07-21T18:24:12.557Z,47.70
2017-07-21T18:26:46.651Z,47.60
2017-07-21T18:29:20.445Z,48.20
2017-07-21T18:31:54.284Z,48.50
2017-07-21T18:34:29.622Z,49.00
2017-07-21T18:37:03.728Z,48.40
2017-07-21T18:39:37.337Z,49.30
2017-07-21T18:42:11.140Z,49.00
2017-07-21T18:44:45.570Z,49.30
2017-07-21T18:47:19.580Z,49.30
2017-07-21T18:49:53.998Z,49.40
2017-07-21T18:52:28.185Z,49.30
2017-07-21T18:55:03.449Z,50.00
2017-07-21T18:57:37.404Z,50.00
2017-07-21T19:00:11.777Z,49.60
2017-07-21T19:02:45.813Z,49.70
2017-07-21T19:05:20.313Z,50.20
2017-07-21T19:07:54.360Z,50.30
2017-07-21T19:10:28.754Z,50.90
2017-07-21T19:13:03.544Z,51.70
2017-07-21T19:15:37.309Z,50.90
2017-07-21T19:18:11.841Z,50.00
2017-07-21T19:20:45.545Z,50.00
2017-07-21T19:23:20.044Z,53.10
2017-07-21T19:25:54.640Z,52.80
2017-07-21T19:28:29.521Z,51.70
2017-07-21T19:31:04.113Z,53.80
2017-07-21T19:33:38.121Z,53.80
2017-07-21T19:36:11.813Z,52.70
2017-07-21T19:38:45.453Z,54.70
2017-07-21T19:41:19.197Z,54.80
2017-07-21T19:43:53.740Z,55.60
2017-07-21T19:46:28.248Z,55.80
2017-07-21T19:49:02.069Z,55.50
2017-07-21T19:51:35.759Z,56.70
2017-07-21T19:54:10.404Z,56.30
2017-07-21T19:56:44.728Z,54.70
2017-07-21T19:59:18.661Z,54.70
2017-07-21T20:01:53.089Z,56.80
2017-07-21T20:04:27.569Z,56.40
2017-07-21T20:07:02.229Z,58.70
2017-07-21T20:09:36.138Z,57.90
2017-07-21T20:12:09.806Z,56.50
2017-07-21T20:14:43.501Z,55.20
2017-07-21T20:17:18.009Z,56.50
2017-07-21T20:19:52.836Z,57.20
2017-07-21T20:22:27.488Z,56.20
2017-07-21T20:25:01.578Z,56.20
2017-07-21T20:27:36.022Z,58.40
2017-07-21T20:30:09.936Z,57.90
2017-07-21T20:32:43.820Z,57.30
2017-07-21T20:35:18.447Z,58.90
2017-07-21T20:37:52.797Z,58.30
2017-07-21T20:40:26.869Z,58.10
2017-07-21T20:43:02.299Z,55.70
2017-07-21T20:45:36.402Z,55.80
2017-07-21T20:48:10.877Z,56.60
2017-07-21T20:50:45.141Z,56.50
2017-07-21T20:53:19.616Z,59.50
2017-07-21T20:55:53.624Z,59.90
2017-07-21T20:58:28.864Z,56.90
2017-07-21T21:01:02.765Z,56.80
2017-07-21T21:03:37.374Z,57.60
2017-07-21T21:06:12.008Z,59.40
2017-07-21T21:08:46.386Z,57.60
2017-07-21T21:11:21.028Z,58.50
2017-07-21T21:13:54.844Z,58.50
2017-07-21T21:16:29.368Z,58.60
2017-07-21T21:19:03.186Z,57.40
2017-07-21T21:21:37.070Z,57.80
2017-07-21T21:24:12.253Z,59.30
2017-07-21T21:26:46.274Z,59.20
2017-07-21T21:29:20.073Z,59.40
2017-07-21T21:31:54.732Z,56.00
2017-07-21T21:34:28.477Z,56.00
2017-07-21T21:37:02.473Z,58.50
2017-07-21T21:39:37.088Z,56.80
2017-07-21T21:42:11.488Z,56.50
2017-07-21T21:44:45.569Z,56.50
2017-07-21T21:47:21.104Z,57.70
2017-07-21T21:49:54.856Z,56.50
2017-07-21T21:52:28.625Z,56.60
2017-07-21T21:55:02.434Z,56.60
2017-07-21T21:57:37.085Z,57.50
2017-07-21T22:00:11.676Z,57.90
2017-07-21T22:02:45.957Z,57.90
2017-07-21T22:05:19.541Z,58.40
2017-07-21T22:07:54.073Z,58.60
2017-07-21T22:10:27.872Z,58.50
2017-07-21T22:13:02.382Z,58.00
2017-07-21T22:15:47.966Z,57.90
2017-07-21T22:18:21.887Z,55.60
2017-07-21T22:20:55.489Z,56.00
2017-07-21T22:23:29.401Z,55.00
2017-07-21T22:26:03.093Z,56.30
2017-07-21T22:28:36.889Z,57.30
2017-07-21T22:31:10.502Z,57.90
2017-07-21T22:33:45.044Z,57.20
2017-07-21T22:36:18.957Z,57.20
2017-07-21T22:38:52.752Z,56.30
2017-07-21T22:41:27.269Z,55.10
2017-07-21T22:44:01.196Z,55.90
2017-07-21T22:46:34.797Z,54.60
2017-07-21T22:49:10.130Z,58.60
2017-07-21T22:51:44.698Z,59.00
2017-07-21T22:54:18.601Z,59.00
2017-07-21T22:56:53.117Z,62.00
2017-07-21T22:59:27.594Z,67.70
2017-07-21T23:02:01.335Z,67.90
2017-07-21T23:04:36.645Z,69.80
2017-07-21T23:07:10.658Z,69.80
2017-07-21T23:09:45.161Z,72.60
2017-07-21T23:12:19.082Z,72.50
2017-07-21T23:14:52.880Z,73.00
2017-07-21T23:17:26.490Z,76.40
2017-07-21T23:20:00.200Z,80.10
2017-07-21T23:22:33.820Z,76.70
2017-07-21T23:25:08.441Z,77.80
2017-07-21T23:27:42.048Z,78.70
2017-07-21T23:30:15.805Z,80.20
2017-07-21T23:32:49.357Z,80.90
2017-07-21T23:35:23.266Z,80.00
2017-07-21T23:37:57.606Z,84.80
2017-07-21T23:40:31.721Z,83.90
2017-07-21T23:43:05.320Z,83.00
2017-07-21T23:45:39.104Z,81.40
2017-07-21T23:48:13.641Z,82.40
2017-07-21T23:50:48.454Z,80.80
2017-07-21T23:53:22.384Z,80.80
2017-07-21T23:55:57.017Z,82.50
2017-07-21T23:58:30.680Z,83.80
